createdAt,value
2019-02-21T00:02:20.344Z,63.83
2019-02-21T00:05:44.315Z,56.70
2019-02-21T00:09:08.305Z,57.57
2019-02-21T00:12:32.313Z,59.90
2019-02-21T00:15:56.985Z,60.03
2019-02-21T00:19:20.725Z,45.53
2019-02-21T00:22:45.671Z,45.90
2019-02-21T00:26:09.448Z,41.10
2019-02-21T00:29:33.341Z,38.00
2019-02-21T00:32:57.101Z,34.70
2019-02-21T00:36:20.976Z,39.57
2019-02-21T00:39:44.723Z,33.40
2019-02-21T00:43:08.544Z,51.40
2019-02-21T00:46:32.626Z,50.03
2019-02-21T00:49:56.415Z,40.00
2019-02-21T00:53:20.123Z,41.73
2019-02-21T00:56:43.949Z,45.50
2019-02-21T01:00:11.428Z,37.17
2019-02-21T01:03:35.223Z,42.30
2019-02-21T01:06:59.121Z,36.40
2019-02-21T01:10:22.906Z,40.63
2019-02-21T01:13:46.991Z,27.70
2019-02-21T01:17:10.761Z,27.37
2019-02-21T01:20:34.455Z,33.47
2019-02-21T01:23:58.159Z,35.13
2019-02-21T01:27:21.946Z,33.87
2019-02-21T01:30:56.421Z,35.67
2019-02-21T01:34:11.373Z,33.30
2019-02-21T01:37:35.140Z,37.40
2019-02-21T01:40:58.946Z,34.10
2019-02-21T01:44:22.906Z,34.83
2019-02-21T01:47:46.758Z,36.80
2019-02-21T01:51:10.541Z,36.27
2019-02-21T01:54:34.195Z,42.77
2019-02-21T01:57:58.050Z,36.23
2019-02-21T02:01:21.844Z,43.73
2019-02-21T02:04:46.028Z,39.87
2019-02-21T02:08:09.832Z,33.63
2019-02-21T02:11:33.626Z,44.83
2019-02-21T02:14:57.433Z,39.17
2019-02-21T02:18:21.543Z,44.87
2019-02-21T02:21:45.243Z,35.10
2019-02-21T02:25:09.067Z,41.43
2019-02-21T02:28:32.790Z,40.23
2019-02-21T02:31:56.559Z,36.63
2019-02-21T02:35:20.529Z,36.07
2019-02-21T02:38:44.328Z,36.60
2019-02-21T02:42:08.184Z,38.23
2019-02-21T02:45:32.266Z,40.87
2019-02-21T02:48:56.005Z,38.93
2019-02-21T02:52:19.994Z,45.10
2019-02-21T02:55:43.816Z,37.53
2019-02-21T02:59:07.655Z,38.43
2019-02-21T03:02:31.674Z,41.60
2019-02-21T03:05:55.402Z,36.27
2019-02-21T03:09:19.205Z,42.97
2019-02-21T03:12:43.005Z,43.27
2019-02-21T03:16:06.865Z,42.30
2019-02-21T03:19:30.731Z,42.37
2019-02-21T03:22:54.553Z,79.27
2019-02-21T03:26:18.413Z,51.60
2019-02-21T03:29:42.378Z,37.80
2019-02-21T03:33:06.267Z,61.53
2019-02-21T03:36:30.297Z,46.63
2019-02-21T03:39:54.074Z,53.27
2019-02-21T03:43:17.949Z,44.00
2019-02-21T03:46:41.788Z,40.53
2019-02-21T03:50:07.867Z,42.33
2019-02-21T03:53:31.612Z,44.53
2019-02-21T03:56:55.622Z,53.90
2019-02-21T04:00:19.603Z,43.80
2019-02-21T04:03:43.418Z,40.87
2019-02-21T04:07:07.193Z,42.10
2019-02-21T04:10:31.945Z,50.27
2019-02-21T04:13:55.836Z,47.93
2019-02-21T04:17:19.637Z,46.53
2019-02-21T04:20:43.264Z,49.43
2019-02-21T04:24:07.136Z,56.83
2019-02-21T04:27:31.045Z,44.20
2019-02-21T04:30:55.001Z,46.60
2019-02-21T04:34:18.879Z,44.53
2019-02-21T04:37:42.684Z,43.97
2019-02-21T04:41:07.012Z,45.83
2019-02-21T04:44:30.879Z,41.83
2019-02-21T04:47:54.821Z,48.37
2019-02-21T04:51:18.706Z,48.70
2019-02-21T04:54:42.451Z,52.07
2019-02-21T04:58:06.626Z,52.47
2019-02-21T05:01:30.527Z,47.10
2019-02-21T05:04:54.529Z,52.30
2019-02-21T05:08:18.363Z,49.57
2019-02-21T05:11:42.057Z,64.33
2019-02-21T05:15:06.526Z,55.20
2019-02-21T05:18:30.545Z,56.73
2019-02-21T05:21:54.426Z,60.53
2019-02-21T05:25:18.419Z,62.03
2019-02-21T05:28:42.318Z,65.07
2019-02-21T05:32:14.011Z,59.07
2019-02-21T05:35:45.411Z,72.60
2019-02-21T05:39:13.525Z,76.83
2019-02-21T05:42:39.004Z,64.20
2019-02-21T05:46:20.962Z,68.13
2019-02-21T05:49:49.463Z,77.30
2019-02-21T05:53:14.968Z,75.27
2019-02-21T05:56:43.325Z,67.40
2019-02-21T06:00:10.668Z,69.23
2019-02-21T06:03:39.071Z,84.97
2019-02-21T06:07:09.791Z,72.77
2019-02-21T06:10:51.107Z,76.27
2019-02-21T06:14:25.402Z,84.03
2019-02-21T06:18:09.209Z,73.20
2019-02-21T06:21:34.803Z,77.50
2019-02-21T06:25:00.320Z,72.10
2019-02-21T06:28:31.676Z,71.93
2019-02-21T06:31:55.446Z,72.00
2019-02-21T06:35:19.311Z,74.47
2019-02-21T06:38:43.213Z,73.57
2019-02-21T06:42:07.428Z,74.73
2019-02-21T06:45:31.122Z,73.37
2019-02-21T06:48:54.856Z,73.20
2019-02-21T06:52:18.663Z,73.33
2019-02-21T06:55:42.836Z,68.60
2019-02-21T06:59:06.584Z,57.77
2019-02-21T07:02:30.725Z,63.03
2019-02-21T07:05:54.497Z,62.87
2019-02-21T07:09:18.204Z,62.13
2019-02-21T07:12:41.981Z,73.03
2019-02-21T07:16:05.711Z,68.87
2019-02-21T07:19:29.471Z,69.53
2019-02-21T07:22:53.275Z,57.67
2019-02-21T07:26:17.132Z,60.17
2019-02-21T07:29:42.507Z,57.33
2019-02-21T07:33:06.526Z,61.43
2019-02-21T07:36:30.446Z,49.57
2019-02-21T07:39:54.921Z,51.47
2019-02-21T07:43:20.552Z,54.80
2019-02-21T07:46:46.288Z,54.50
2019-02-21T07:50:09.970Z,51.03
2019-02-21T07:53:34.150Z,50.40
2019-02-21T07:56:58.011Z,53.43
2019-02-21T08:00:21.986Z,56.10
2019-02-21T08:03:48.347Z,53.53
2019-02-21T08:07:12.223Z,65.80
2019-02-21T08:10:36.429Z,58.93
2019-02-21T08:14:00.359Z,53.80
2019-02-21T08:17:24.144Z,55.37
2019-02-21T08:20:48.066Z,54.07
2019-02-21T08:24:12.720Z,47.27
2019-02-21T08:27:36.531Z,46.33
2019-02-21T08:31:00.179Z,47.70
2019-02-21T08:34:34.708Z,58.50
2019-02-21T08:37:58.784Z,55.53
2019-02-21T08:41:25.576Z,56.07
2019-02-21T08:44:48.244Z,46.37
2019-02-21T08:48:13.517Z,43.27
2019-02-21T08:51:37.790Z,45.40
2019-02-21T08:55:01.589Z,43.87
2019-02-21T08:58:25.318Z,36.83
2019-02-21T09:01:49.174Z,45.03
2019-02-21T09:05:14.002Z,41.50
2019-02-21T09:08:37.862Z,49.17
2019-02-21T09:12:01.810Z,44.80
2019-02-21T09:15:25.637Z,38.13
2019-02-21T09:18:50.004Z,44.30
2019-02-21T09:22:13.728Z,47.17
2019-02-21T09:25:37.504Z,40.10
2019-02-21T09:29:02.044Z,40.83
2019-02-21T09:32:25.795Z,44.67
2019-02-21T09:35:49.593Z,40.73
2019-02-21T09:39:15.853Z,40.27
2019-02-21T09:42:38.878Z,43.60
2019-02-21T09:46:03.099Z,39.30
2019-02-21T09:49:26.803Z,44.43
2019-02-21T09:52:50.419Z,39.83
2019-02-21T09:56:14.302Z,40.07
2019-02-21T09:59:38.176Z,41.63
2019-02-21T10:03:01.961Z,35.07
2019-02-21T10:06:25.718Z,33.67
2019-02-21T10:09:49.581Z,44.37
2019-02-21T10:13:13.567Z,37.50
2019-02-21T10:16:37.373Z,32.37
2019-02-21T10:20:03.859Z,34.07
2019-02-21T10:23:26.489Z,27.73
2019-02-21T10:26:50.553Z,34.37
2019-02-21T10:30:16.931Z,28.17
2019-02-21T10:33:47.149Z,31.87
2019-02-21T10:37:06.307Z,38.73
2019-02-21T10:40:30.408Z,27.90
2019-02-21T10:43:54.130Z,30.67
2019-02-21T10:47:18.246Z,26.77
2019-02-21T10:50:42.164Z,32.47
2019-02-21T10:54:06.112Z,31.40
2019-02-21T10:57:30.001Z,28.30
2019-02-21T11:00:53.871Z,27.07
2019-02-21T11:04:17.763Z,29.07
2019-02-21T11:07:41.597Z,24.57
2019-02-21T11:11:05.436Z,26.03
2019-02-21T11:14:29.204Z,32.23
2019-02-21T11:17:53.019Z,31.97
2019-02-21T11:21:16.885Z,26.63
2019-02-21T11:24:40.867Z,25.33
2019-02-21T11:28:04.776Z,26.13
2019-02-21T11:31:29.617Z,24.00
2019-02-21T11:34:53.394Z,37.23
2019-02-21T11:38:17.259Z,24.90
2019-02-21T11:41:41.031Z,28.43
2019-02-21T11:45:07.364Z,54.03
2019-02-21T11:48:31.185Z,36.57
2019-02-21T11:51:55.824Z,32.00
2019-02-21T11:55:24.103Z,27.63
2019-02-21T11:58:48.383Z,30.87
2019-02-21T12:02:12.393Z,30.03
2019-02-21T12:05:36.204Z,32.30
2019-02-21T12:09:00.099Z,31.47
2019-02-21T12:12:24.917Z,26.67
2019-02-21T12:15:48.709Z,33.07
2019-02-21T12:19:12.766Z,33.10
2019-02-21T12:22:37.188Z,35.47
2019-02-21T12:26:00.966Z,51.07
2019-02-21T12:29:24.694Z,43.27
2019-02-21T12:32:49.536Z,38.63
2019-02-21T12:36:13.829Z,35.10
2019-02-21T12:39:37.571Z,41.80
2019-02-21T12:43:01.710Z,42.93
2019-02-21T12:46:25.577Z,42.80
2019-02-21T12:49:49.312Z,58.30
2019-02-21T12:53:13.426Z,56.23
2019-02-21T12:56:38.447Z,50.67
2019-02-21T13:00:02.304Z,50.10
2019-02-21T13:03:26.601Z,47.97
2019-02-21T13:06:50.404Z,52.80
2019-02-21T13:10:16.458Z,48.67
2019-02-21T13:13:40.309Z,40.77
2019-02-21T13:17:04.648Z,57.13
2019-02-21T13:20:28.444Z,42.80
2019-02-21T13:23:52.612Z,49.00
2019-02-21T13:27:16.345Z,54.73
2019-02-21T13:30:40.245Z,50.97
2019-02-21T13:34:04.135Z,51.07
2019-02-21T13:37:29.132Z,53.23
2019-02-21T13:40:53.124Z,55.67
2019-02-21T13:44:16.999Z,56.53
2019-02-21T13:47:40.777Z,57.97
2019-02-21T13:51:04.807Z,55.10
2019-02-21T13:54:28.630Z,58.33
2019-02-21T13:57:52.501Z,68.10
2019-02-21T14:01:16.540Z,59.23
2019-02-21T14:04:40.341Z,66.10
2019-02-21T14:08:04.061Z,42.23
2019-02-21T14:11:30.610Z,59.37
2019-02-21T14:14:53.642Z,60.40
2019-02-21T14:18:17.489Z,48.83
2019-02-21T14:21:43.654Z,57.80
2019-02-21T14:25:09.446Z,57.23
2019-02-21T14:28:33.441Z,55.47
2019-02-21T14:31:57.237Z,66.90
2019-02-21T14:35:24.001Z,68.43
2019-02-21T14:38:47.932Z,79.17
2019-02-21T14:42:11.737Z,75.10
2019-02-21T14:45:35.685Z,82.47
2019-02-21T14:49:01.884Z,78.87
2019-02-21T14:52:25.737Z,73.23
2019-02-21T14:55:50.345Z,94.27
2019-02-21T14:59:14.212Z,83.37
2019-02-21T15:02:39.173Z,80.67
2019-02-21T15:06:03.141Z,86.53
2019-02-21T15:09:26.954Z,79.70
2019-02-21T15:12:50.753Z,82.03
2019-02-21T15:16:14.824Z,85.70
2019-02-21T15:19:38.666Z,91.00
2019-02-21T15:23:03.729Z,92.00
2019-02-21T15:26:27.619Z,86.80
2019-02-21T15:29:51.615Z,115.50
2019-02-21T15:33:16.438Z,84.80
2019-02-21T15:36:40.374Z,72.63
2019-02-21T15:40:05.004Z,60.20
2019-02-21T15:43:28.787Z,65.93
2019-02-21T15:46:52.661Z,63.97
2019-02-21T15:50:19.733Z,68.57
2019-02-21T15:53:42.170Z,75.83
2019-02-21T15:57:05.916Z,74.73
2019-02-21T16:00:29.948Z,70.13
2019-02-21T16:03:53.802Z,74.33
2019-02-21T16:07:17.892Z,76.27
2019-02-21T16:10:42.238Z,87.87
2019-02-21T16:14:06.356Z,74.13
2019-02-21T16:17:30.574Z,65.10
2019-02-21T16:20:54.772Z,56.13
2019-02-21T16:24:19.311Z,49.17
2019-02-21T16:27:43.633Z,41.67
2019-02-21T16:31:07.716Z,36.77
2019-02-21T16:34:33.076Z,42.10
2019-02-21T16:37:57.123Z,89.73
2019-02-21T16:41:23.377Z,74.27
2019-02-21T16:44:47.268Z,68.03
2019-02-21T16:48:12.272Z,65.77
2019-02-21T16:51:36.246Z,83.80
2019-02-21T16:55:00.156Z,70.20
2019-02-21T16:58:24.655Z,74.27
2019-02-21T17:01:48.680Z,66.80
2019-02-21T17:05:13.318Z,67.03
2019-02-21T17:08:37.611Z,75.87
2019-02-21T17:12:02.616Z,75.40
2019-02-21T17:15:29.601Z,77.93
2019-02-21T17:18:55.890Z,77.17
2019-02-21T17:22:19.106Z,86.07
2019-02-21T17:25:45.182Z,82.00
2019-02-21T17:29:08.577Z,77.57
2019-02-21T17:32:32.706Z,83.43
2019-02-21T17:35:56.534Z,85.90
2019-02-21T17:39:20.523Z,86.40
2019-02-21T17:42:44.767Z,86.57
2019-02-21T17:46:08.657Z,102.13
2019-02-21T17:49:32.548Z,90.83
2019-02-21T17:52:56.857Z,106.13
2019-02-21T17:56:20.734Z,98.27
2019-02-21T17:59:44.666Z,103.70
2019-02-21T18:03:08.566Z,91.10
2019-02-21T18:06:32.460Z,87.03
2019-02-21T18:09:56.510Z,96.37
2019-02-21T18:13:20.379Z,108.47
2019-02-21T18:16:44.163Z,109.00
2019-02-21T18:20:11.255Z,120.47
2019-02-21T18:23:35.160Z,125.97
2019-02-21T18:26:58.883Z,185.50
2019-02-21T18:30:22.801Z,123.00
2019-02-21T18:33:46.649Z,95.43
2019-02-21T18:37:10.635Z,98.33
2019-02-21T18:40:34.463Z,84.07
2019-02-21T18:43:59.387Z,66.60
2019-02-21T18:47:23.965Z,52.90
2019-02-21T18:50:48.264Z,53.37
2019-02-21T18:54:12.112Z,206.60
2019-02-21T18:57:36.615Z,49.90
2019-02-21T19:01:00.312Z,88.50
2019-02-21T19:04:24.188Z,87.13
2019-02-21T19:07:58.053Z,75.47
2019-02-21T19:11:13.496Z,70.77
2019-02-21T19:14:38.164Z,59.40
2019-02-21T19:18:01.918Z,118.20
2019-02-21T19:21:25.826Z,47.57
2019-02-21T19:24:51.866Z,53.80
2019-02-21T19:28:16.619Z,53.47
2019-02-21T19:31:41.364Z,55.40
2019-02-21T19:35:06.880Z,41.70
2019-02-21T19:38:31.902Z,46.83
2019-02-21T19:41:55.739Z,55.70
2019-02-21T19:45:20.692Z,122.70
2019-02-21T19:48:44.658Z,60.20
2019-02-21T19:52:08.598Z,48.67
2019-02-21T19:55:32.614Z,57.87
2019-02-21T19:58:56.380Z,67.57
2019-02-21T20:02:20.382Z,82.17
2019-02-21T20:05:45.460Z,51.57
2019-02-21T20:09:11.059Z,62.70
2019-02-21T20:12:35.059Z,53.00
2019-02-21T20:15:58.951Z,50.83
2019-02-21T20:19:22.773Z,105.60
2019-02-21T20:22:46.587Z,53.90
2019-02-21T20:26:17.870Z,57.43
2019-02-21T20:29:36.782Z,63.13
2019-02-21T20:33:00.732Z,63.40
2019-02-21T20:36:24.987Z,118.40
2019-02-21T20:39:48.935Z,76.70
2019-02-21T20:43:12.862Z,64.63
2019-02-21T20:46:36.870Z,64.83
2019-02-21T20:50:03.398Z,64.27
2019-02-21T20:53:27.514Z,113.30
2019-02-21T20:56:51.344Z,69.70
2019-02-21T21:00:17.913Z,75.30
2019-02-21T21:03:42.820Z,70.57
2019-02-21T21:07:06.678Z,77.87
2019-02-21T21:10:31.546Z,80.83
2019-02-21T21:13:55.817Z,75.63
2019-02-21T21:17:19.835Z,82.57
2019-02-21T21:20:43.824Z,75.07
2019-02-21T21:24:07.976Z,75.00
2019-02-21T21:27:32.013Z,71.90
2019-02-21T21:30:55.818Z,70.77
2019-02-21T21:34:19.709Z,77.77
2019-02-21T21:37:43.587Z,73.23
2019-02-21T21:41:07.542Z,78.07
2019-02-21T21:44:31.445Z,75.53
2019-02-21T21:47:57.311Z,78.63
2019-02-21T21:51:20.941Z,78.87
2019-02-21T21:54:44.989Z,71.80
2019-02-21T21:58:08.912Z,71.17
2019-02-21T22:01:32.962Z,74.87
2019-02-21T22:04:56.970Z,79.67
2019-02-21T22:08:20.831Z,78.83
2019-02-21T22:11:44.686Z,103.73
2019-02-21T22:15:14.091Z,89.10
2019-02-21T22:18:37.847Z,85.37
2019-02-21T22:22:01.710Z,93.33
2019-02-21T22:25:26.173Z,73.23
2019-02-21T22:28:50.920Z,75.27
2019-02-21T22:32:15.003Z,85.00
2019-02-21T22:35:38.802Z,88.43
2019-02-21T22:39:02.550Z,93.67
2019-02-21T22:42:26.547Z,100.50
2019-02-21T22:45:50.811Z,88.07
2019-02-21T22:49:16.489Z,88.23
2019-02-21T22:52:40.257Z,88.87
2019-02-21T22:56:04.088Z,82.13
2019-02-21T22:59:28.089Z,80.20
2019-02-21T23:02:52.151Z,119.63
2019-02-21T23:06:47.961Z,76.43
2019-02-21T23:10:12.054Z,65.73
2019-02-21T23:13:35.961Z,76.63
2019-02-21T23:16:59.842Z,80.60
2019-02-21T23:20:23.688Z,70.77
2019-02-21T23:23:47.544Z,73.27
2019-02-21T23:27:12.386Z,69.27
2019-02-21T23:30:36.245Z,94.80
2019-02-21T23:34:04.148Z,66.70
2019-02-21T23:37:28.118Z,72.90
2019-02-21T23:40:51.943Z,61.57
2019-02-21T23:44:15.760Z,75.67
2019-02-21T23:47:49.388Z,67.33
2019-02-21T23:51:05.105Z,70.13
2019-02-21T23:54:29.056Z,56.63
2019-02-21T23:57:52.863Z,60.17
